sensor_id;sensor_type;location;lat;lon;timestamp;temperature;humidity
44851;DHT22;30583;48.714;9.386;2023-07-20T00:01:15;27.20;38.90
44851;DHT22;30583;48.714;9.386;2023-07-20T00:03:41;27.30;38.90
44851;DHT22;30583;48.714;9.386;2023-07-20T00:06:06;26.80;39.50
44851;DHT22;30583;48.714;9.386;2023-07-20T00:08:32;26.90;39.70
44851;DHT22;30583;48.714;9.386;2023-07-20T00:10:57;27.30;39.00
44851;DHT22;30583;48.714;9.386;2023-07-20T00:13:24;26.40;40.40
44851;DHT22;30583;48.714;9.386;2023-07-20T00:15:50;26.40;40.10
44851;DHT22;30583;48.714;9.386;2023-07-20T00:18:16;26.90;39.00
44851;DHT22;30583;48.714;9.386;2023-07-20T00:20:41;27.00;38.00
44851;DHT22;30583;48.714;9.386;2023-07-20T00:23:07;27.10;37.70
44851;DHT22;30583;48.714;9.386;2023-07-20T00:25:32;26.30;38.50
44851;DHT22;30583;48.714;9.386;2023-07-20T00:27:59;26.40;38.10
44851;DHT22;30583;48.714;9.386;2023-07-20T00:30:24;26.70;37.40
44851;DHT22;30583;48.714;9.386;2023-07-20T00:32:50;27.00;36.50
44851;DHT22;30583;48.714;9.386;2023-07-20T00:35:15;26.60;36.80
44851;DHT22;30583;48.714;9.386;2023-07-20T00:37:41;26.40;37.00
44851;DHT22;30583;48.714;9.386;2023-07-20T00:40:07;26.20;37.00
44851;DHT22;30583;48.714;9.386;2023-07-20T00:42:34;26.30;37.30
44851;DHT22;30583;48.714;9.386;2023-07-20T00:44:59;26.70;36.50
44851;DHT22;30583;48.714;9.386;2023-07-20T00:47:26;26.50;36.50
44851;DHT22;30583;48.714;9.386;2023-07-20T00:49:52;26.20;36.70
44851;DHT22;30583;48.714;9.386;2023-07-20T00:52:19;26.60;36.40
44851;DHT22;30583;48.714;9.386;2023-07-20T00:54:46;26.80;36.00
44851;DHT22;30583;48.714;9.386;2023-07-20T00:57:14;26.70;36.20
44851;DHT22;30583;48.714;9.386;2023-07-20T00:59:41;26.70;36.30
44851;DHT22;30583;48.714;9.386;2023-07-20T01:02:06;26.80;36.00
44851;DHT22;30583;48.714;9.386;2023-07-20T01:04:32;27.00;36.10
44851;DHT22;30583;48.714;9.386;2023-07-20T01:07:06;26.90;36.50
44851;DHT22;30583;48.714;9.386;2023-07-20T01:12:07;26.90;36.50
44851;DHT22;30583;48.714;9.386;2023-07-20T01:14:34;26.70;37.00
44851;DHT22;30583;48.714;9.386;2023-07-20T01:17:01;26.90;36.40
44851;DHT22;30583;48.714;9.386;2023-07-20T01:19:26;27.00;36.30
44851;DHT22;30583;48.714;9.386;2023-07-20T01:32:54;26.80;36.80
44851;DHT22;30583;48.714;9.386;2023-07-20T01:35:22;26.80;37.10
44851;DHT22;30583;48.714;9.386;2023-07-20T01:37:49;26.70;37.50
44851;DHT22;30583;48.714;9.386;2023-07-20T01:40:16;26.60;37.90
44851;DHT22;30583;48.714;9.386;2023-07-20T01:42:46;26.70;37.90
44851;DHT22;30583;48.714;9.386;2023-07-20T01:45:12;26.50;38.20
44851;DHT22;30583;48.714;9.386;2023-07-20T01:47:38;26.60;38.00
44851;DHT22;30583;48.714;9.386;2023-07-20T01:50:04;26.30;38.30
44851;DHT22;30583;48.714;9.386;2023-07-20T01:52:30;26.70;37.90
44851;DHT22;30583;48.714;9.386;2023-07-20T01:54:55;26.60;37.90
44851;DHT22;30583;48.714;9.386;2023-07-20T01:57:21;26.70;37.80
44851;DHT22;30583;48.714;9.386;2023-07-20T01:59:46;26.70;37.60
44851;DHT22;30583;48.714;9.386;2023-07-20T02:02:12;26.40;38.20
44851;DHT22;30583;48.714;9.386;2023-07-20T02:04:37;26.20;38.30
44851;DHT22;30583;48.714;9.386;2023-07-20T02:07:03;25.50;39.50
44851;DHT22;30583;48.714;9.386;2023-07-20T02:09:29;25.20;40.40
44851;DHT22;30583;48.714;9.386;2023-07-20T02:11:55;25.10;41.00
44851;DHT22;30583;48.714;9.386;2023-07-20T02:14:20;24.90;41.40
44851;DHT22;30583;48.714;9.386;2023-07-20T02:16:48;24.70;41.80
44851;DHT22;30583;48.714;9.386;2023-07-20T02:19:18;24.50;42.70
44851;DHT22;30583;48.714;9.386;2023-07-20T02:21:44;24.40;42.80
44851;DHT22;30583;48.714;9.386;2023-07-20T02:24:10;24.30;42.80
44851;DHT22;30583;48.714;9.386;2023-07-20T02:26:35;24.10;43.10
44851;DHT22;30583;48.714;9.386;2023-07-20T02:29:01;24.00;43.20
44851;DHT22;30583;48.714;9.386;2023-07-20T02:31:30;23.90;43.50
44851;DHT22;30583;48.714;9.386;2023-07-20T02:33:55;23.80;43.70
44851;DHT22;30583;48.714;9.386;2023-07-20T02:36:21;23.90;43.70
44851;DHT22;30583;48.714;9.386;2023-07-20T02:38:46;23.70;43.90
44851;DHT22;30583;48.714;9.386;2023-07-20T02:41:13;23.70;44.20
44851;DHT22;30583;48.714;9.386;2023-07-20T02:43:39;23.70;44.10
44851;DHT22;30583;48.714;9.386;2023-07-20T02:46:04;23.70;44.10
44851;DHT22;30583;48.714;9.386;2023-07-20T02:48:30;23.60;44.20
44851;DHT22;30583;48.714;9.386;2023-07-20T02:50:55;23.60;44.20
44851;DHT22;30583;48.714;9.386;2023-07-20T02:53:21;23.40;45.30
44851;DHT22;30583;48.714;9.386;2023-07-20T02:55:46;23.20;46.00
44851;DHT22;30583;48.714;9.386;2023-07-20T02:58:12;23.00;46.30
44851;DHT22;30583;48.714;9.386;2023-07-20T03:00:38;23.20;45.70
44851;DHT22;30583;48.714;9.386;2023-07-20T03:03:04;23.20;45.70
44851;DHT22;30583;48.714;9.386;2023-07-20T03:05:29;23.20;45.70
44851;DHT22;30583;48.714;9.386;2023-07-20T03:07:55;23.10;46.00
44851;DHT22;30583;48.714;9.386;2023-07-20T03:10:21;23.00;46.20
44851;DHT22;30583;48.714;9.386;2023-07-20T03:12:47;23.00;46.00
44851;DHT22;30583;48.714;9.386;2023-07-20T03:15:12;22.90;46.20
44851;DHT22;30583;48.714;9.386;2023-07-20T03:17:38;22.80;46.40
44851;DHT22;30583;48.714;9.386;2023-07-20T03:20:04;22.80;46.50
44851;DHT22;30583;48.714;9.386;2023-07-20T03:22:34;22.90;46.40
44851;DHT22;30583;48.714;9.386;2023-07-20T03:24:59;22.70;47.10
44851;DHT22;30583;48.714;9.386;2023-07-20T03:27:25;22.50;47.40
44851;DHT22;30583;48.714;9.386;2023-07-20T03:29:51;22.30;47.70
44851;DHT22;30583;48.714;9.386;2023-07-20T03:32:16;22.40;47.60
44851;DHT22;30583;48.714;9.386;2023-07-20T03:34:42;22.40;47.50
44851;DHT22;30583;48.714;9.386;2023-07-20T03:37:09;22.40;47.40
44851;DHT22;30583;48.714;9.386;2023-07-20T03:39:35;22.40;47.40
44851;DHT22;30583;48.714;9.386;2023-07-20T03:42:00;22.30;47.40
44851;DHT22;30583;48.714;9.386;2023-07-20T03:44:26;22.40;47.40
44851;DHT22;30583;48.714;9.386;2023-07-20T03:46:51;22.30;47.70
44851;DHT22;30583;48.714;9.386;2023-07-20T03:49:17;22.40;47.60
44851;DHT22;30583;48.714;9.386;2023-07-20T03:51:43;22.40;47.70
44851;DHT22;30583;48.714;9.386;2023-07-20T03:54:09;22.30;48.10
44851;DHT22;30583;48.714;9.386;2023-07-20T03:56:34;22.10;49.00
44851;DHT22;30583;48.714;9.386;2023-07-20T03:59:01;22.10;49.20
44851;DHT22;30583;48.714;9.386;2023-07-20T04:01:26;21.90;49.90
44851;DHT22;30583;48.714;9.386;2023-07-20T04:03:52;22.00;49.70
44851;DHT22;30583;48.714;9.386;2023-07-20T04:06:17;22.00;50.00
44851;DHT22;30583;48.714;9.386;2023-07-20T04:08:44;22.10;49.60
44851;DHT22;30583;48.714;9.386;2023-07-20T04:11:10;22.00;49.60
44851;DHT22;30583;48.714;9.386;2023-07-20T04:13:36;21.90;49.80
44851;DHT22;30583;48.714;9.386;2023-07-20T04:16:01;21.80;50.10
44851;DHT22;30583;48.714;9.386;2023-07-20T04:18:28;21.80;50.10
44851;DHT22;30583;48.714;9.386;2023-07-20T04:20:53;22.20;50.30
44851;DHT22;30583;48.714;9.386;2023-07-20T04:23:19;22.20;50.20
44851;DHT22;30583;48.714;9.386;2023-07-20T04:25:44;22.20;49.90
44851;DHT22;30583;48.714;9.386;2023-07-20T04:28:10;22.30;50.10
44851;DHT22;30583;48.714;9.386;2023-07-20T04:30:36;22.20;50.10
44851;DHT22;30583;48.714;9.386;2023-07-20T04:33:03;21.90;50.50
44851;DHT22;30583;48.714;9.386;2023-07-20T04:35:54;22.00;50.60
44851;DHT22;30583;48.714;9.386;2023-07-20T04:38:20;22.10;50.50
44851;DHT22;30583;48.714;9.386;2023-07-20T04:40:47;22.00;50.70
44851;DHT22;30583;48.714;9.386;2023-07-20T04:43:14;21.90;51.00
44851;DHT22;30583;48.714;9.386;2023-07-20T04:45:40;22.00;50.80
44851;DHT22;30583;48.714;9.386;2023-07-20T04:48:09;22.10;50.40
44851;DHT22;30583;48.714;9.386;2023-07-20T04:50:36;22.10;50.20
44851;DHT22;30583;48.714;9.386;2023-07-20T04:53:02;22.20;49.80
44851;DHT22;30583;48.714;9.386;2023-07-20T04:55:27;22.10;49.70
44851;DHT22;30583;48.714;9.386;2023-07-20T04:57:53;22.10;49.80
44851;DHT22;30583;48.714;9.386;2023-07-20T05:00:19;22.00;50.20
44851;DHT22;30583;48.714;9.386;2023-07-20T05:02:45;22.20;50.10
44851;DHT22;30583;48.714;9.386;2023-07-20T05:05:13;22.10;50.20
44851;DHT22;30583;48.714;9.386;2023-07-20T05:07:38;22.00;50.20
44851;DHT22;30583;48.714;9.386;2023-07-20T05:10:04;22.20;50.40
44851;DHT22;30583;48.714;9.386;2023-07-20T05:12:30;22.20;50.30
44851;DHT22;30583;48.714;9.386;2023-07-20T05:14:55;22.70;58.50
44851;DHT22;30583;48.714;9.386;2023-07-20T05:17:21;23.70;55.90
44851;DHT22;30583;48.714;9.386;2023-07-20T05:19:46;24.00;52.90
44851;DHT22;30583;48.714;9.386;2023-07-20T05:22:13;24.20;51.80
44851;DHT22;30583;48.714;9.386;2023-07-20T05:24:39;24.20;50.90
44851;DHT22;30583;48.714;9.386;2023-07-20T05:27:05;24.20;50.20
44851;DHT22;30583;48.714;9.386;2023-07-20T05:29:30;24.20;50.30
44851;DHT22;30583;48.714;9.386;2023-07-20T05:31:57;23.80;49.90
44851;DHT22;30583;48.714;9.386;2023-07-20T05:34:22;24.00;49.30
44851;DHT22;30583;48.714;9.386;2023-07-20T05:36:48;23.10;51.20
44851;DHT22;30583;48.714;9.386;2023-07-20T05:39:16;22.70;51.70
44851;DHT22;30583;48.714;9.386;2023-07-20T05:41:42;22.20;49.80
44851;DHT22;30583;48.714;9.386;2023-07-20T05:44:07;21.30;50.60
44851;DHT22;30583;48.714;9.386;2023-07-20T05:46:33;21.90;51.90
44851;DHT22;30583;48.714;9.386;2023-07-20T05:48:59;22.70;49.60
44851;DHT22;30583;48.714;9.386;2023-07-20T05:51:24;22.90;50.40
44851;DHT22;30583;48.714;9.386;2023-07-20T05:53:50;23.60;48.40
44851;DHT22;30583;48.714;9.386;2023-07-20T05:56:15;23.80;47.80
44851;DHT22;30583;48.714;9.386;2023-07-20T05:58:42;23.90;47.30
44851;DHT22;30583;48.714;9.386;2023-07-20T06:01:07;24.00;47.30
44851;DHT22;30583;48.714;9.386;2023-07-20T06:03:33;23.40;47.60
44851;DHT22;30583;48.714;9.386;2023-07-20T06:06:02;23.80;47.60
44851;DHT22;30583;48.714;9.386;2023-07-20T06:08:32;23.90;47.40
44851;DHT22;30583;48.714;9.386;2023-07-20T06:10:57;24.00;47.20
44851;DHT22;30583;48.714;9.386;2023-07-20T06:13:23;24.10;46.90
44851;DHT22;30583;48.714;9.386;2023-07-20T06:15:49;23.50;46.70
44851;DHT22;30583;48.714;9.386;2023-07-20T06:18:15;23.70;48.20
44851;DHT22;30583;48.714;9.386;2023-07-20T06:20:41;24.00;47.30
44851;DHT22;30583;48.714;9.386;2023-07-20T06:23:06;23.90;47.30
44851;DHT22;30583;48.714;9.386;2023-07-20T06:25:32;24.00;47.30
44851;DHT22;30583;48.714;9.386;2023-07-20T06:27:58;23.70;47.70
44851;DHT22;30583;48.714;9.386;2023-07-20T06:30:24;22.20;50.50
44851;DHT22;30583;48.714;9.386;2023-07-20T06:32:51;23.10;49.50
44851;DHT22;30583;48.714;9.386;2023-07-20T06:35:17;23.30;47.10
44851;DHT22;30583;48.714;9.386;2023-07-20T06:37:43;22.80;49.80
44851;DHT22;30583;48.714;9.386;2023-07-20T06:40:09;22.60;48.00
44851;DHT22;30583;48.714;9.386;2023-07-20T06:42:34;22.10;49.60
44851;DHT22;30583;48.714;9.386;2023-07-20T06:45:01;21.70;50.90
44851;DHT22;30583;48.714;9.386;2023-07-20T06:47:26;21.70;50.60
44851;DHT22;30583;48.714;9.386;2023-07-20T06:49:52;21.90;50.60
44851;DHT22;30583;48.714;9.386;2023-07-20T06:52:18;22.50;50.00
44851;DHT22;30583;48.714;9.386;2023-07-20T06:54:43;23.00;48.00
44851;DHT22;30583;48.714;9.386;2023-07-20T06:57:09;22.90;49.40
44851;DHT22;30583;48.714;9.386;2023-07-20T06:59:34;23.40;48.30
44851;DHT22;30583;48.714;9.386;2023-07-20T07:02:00;23.70;47.30
44851;DHT22;30583;48.714;9.386;2023-07-20T07:04:25;22.90;48.00
44851;DHT22;30583;48.714;9.386;2023-07-20T07:06:52;23.00;48.10
44851;DHT22;30583;48.714;9.386;2023-07-20T07:09:18;21.80;51.10
44851;DHT22;30583;48.714;9.386;2023-07-20T07:11:44;21.30;53.00
44851;DHT22;30583;48.714;9.386;2023-07-20T07:14:10;21.70;50.90
44851;DHT22;30583;48.714;9.386;2023-07-20T07:16:35;21.70;50.20
44851;DHT22;30583;48.714;9.386;2023-07-20T07:19:01;22.20;49.20
44851;DHT22;30583;48.714;9.386;2023-07-20T07:21:26;22.20;49.50
44851;DHT22;30583;48.714;9.386;2023-07-20T07:23:52;22.00;50.20
44851;DHT22;30583;48.714;9.386;2023-07-20T07:26:23;22.40;49.30
44851;DHT22;30583;48.714;9.386;2023-07-20T07:28:49;22.10;50.60
44851;DHT22;30583;48.714;9.386;2023-07-20T07:31:14;22.50;49.40
44851;DHT22;30583;48.714;9.386;2023-07-20T07:33:40;23.00;48.50
44851;DHT22;30583;48.714;9.386;2023-07-20T07:36:06;22.70;48.60
44851;DHT22;30583;48.714;9.386;2023-07-20T07:38:32;22.40;49.80
44851;DHT22;30583;48.714;9.386;2023-07-20T07:40:58;22.00;50.80
44851;DHT22;30583;48.714;9.386;2023-07-20T07:43:23;22.00;50.80
44851;DHT22;30583;48.714;9.386;2023-07-20T07:45:49;22.10;50.30
44851;DHT22;30583;48.714;9.386;2023-07-20T07:48:15;22.20;50.20
44851;DHT22;30583;48.714;9.386;2023-07-20T07:50:40;22.40;49.80
44851;DHT22;30583;48.714;9.386;2023-07-20T07:53:07;22.90;48.80
44851;DHT22;30583;48.714;9.386;2023-07-20T07:55:35;22.70;49.30
44851;DHT22;30583;48.714;9.386;2023-07-20T07:58:00;22.80;49.10
44851;DHT22;30583;48.714;9.386;2023-07-20T08:00:26;22.90;49.70
44851;DHT22;30583;48.714;9.386;2023-07-20T08:02:52;23.10;50.00
44851;DHT22;30583;48.714;9.386;2023-07-20T08:05:17;23.70;49.00
44851;DHT22;30583;48.714;9.386;2023-07-20T08:07:43;23.60;48.70
44851;DHT22;30583;48.714;9.386;2023-07-20T08:10:09;23.50;47.90
44851;DHT22;30583;48.714;9.386;2023-07-20T08:12:35;23.40;48.80
44851;DHT22;30583;48.714;9.386;2023-07-20T08:15:00;22.90;49.20
44851;DHT22;30583;48.714;9.386;2023-07-20T08:17:26;22.80;49.10
44851;DHT22;30583;48.714;9.386;2023-07-20T08:19:52;22.90;49.00
44851;DHT22;30583;48.714;9.386;2023-07-20T08:22:17;23.00;48.70
44851;DHT22;30583;48.714;9.386;2023-07-20T08:24:43;22.90;48.60
44851;DHT22;30583;48.714;9.386;2023-07-20T08:27:09;22.60;49.30
44851;DHT22;30583;48.714;9.386;2023-07-20T08:29:35;23.10;48.80
44851;DHT22;30583;48.714;9.386;2023-07-20T08:32:01;23.30;48.10
44851;DHT22;30583;48.714;9.386;2023-07-20T08:34:27;23.20;47.90
44851;DHT22;30583;48.714;9.386;2023-07-20T08:36:53;23.00;48.30
44851;DHT22;30583;48.714;9.386;2023-07-20T08:39:19;23.10;48.50
44851;DHT22;30583;48.714;9.386;2023-07-20T08:41:46;22.90;48.40
44851;DHT22;30583;48.714;9.386;2023-07-20T08:44:11;22.80;48.60
44851;DHT22;30583;48.714;9.386;2023-07-20T08:46:38;23.10;47.50
44851;DHT22;30583;48.714;9.386;2023-07-20T08:49:05;23.20;46.40
44851;DHT22;30583;48.714;9.386;2023-07-20T08:51:32;23.40;46.50
44851;DHT22;30583;48.714;9.386;2023-07-20T08:53:59;23.20;46.90
44851;DHT22;30583;48.714;9.386;2023-07-20T08:56:25;23.30;46.90
44851;DHT22;30583;48.714;9.386;2023-07-20T08:58:55;23.60;46.80
44851;DHT22;30583;48.714;9.386;2023-07-20T09:01:21;23.70;46.00
44851;DHT22;30583;48.714;9.386;2023-07-20T09:03:47;23.40;46.30
44851;DHT22;30583;48.714;9.386;2023-07-20T09:06:14;23.50;46.30
44851;DHT22;30583;48.714;9.386;2023-07-20T09:08:40;23.90;46.00
44851;DHT22;30583;48.714;9.386;2023-07-20T09:11:06;24.20;45.00
44851;DHT22;30583;48.714;9.386;2023-07-20T09:13:33;24.20;44.80
44851;DHT22;30583;48.714;9.386;2023-07-20T09:15:59;23.60;44.70
44851;DHT22;30583;48.714;9.386;2023-07-20T09:18:26;23.90;43.60
44851;DHT22;30583;48.714;9.386;2023-07-20T09:20:53;24.00;43.60
44851;DHT22;30583;48.714;9.386;2023-07-20T09:23:19;23.90;44.70
44851;DHT22;30583;48.714;9.386;2023-07-20T09:25:46;24.10;44.80
44851;DHT22;30583;48.714;9.386;2023-07-20T09:28:16;23.60;44.40
44851;DHT22;30583;48.714;9.386;2023-07-20T09:30:41;23.60;43.80
44851;DHT22;30583;48.714;9.386;2023-07-20T09:33:18;23.70;44.60
44851;DHT22;30583;48.714;9.386;2023-07-20T09:35:44;24.00;44.40
44851;DHT22;30583;48.714;9.386;2023-07-20T09:38:10;24.30;44.30
44851;DHT22;30583;48.714;9.386;2023-07-20T09:40:40;24.70;44.10
44851;DHT22;30583;48.714;9.386;2023-07-20T09:43:08;24.70;43.20
44851;DHT22;30583;48.714;9.386;2023-07-20T09:45:44;24.90;40.10
44851;DHT22;30583;48.714;9.386;2023-07-20T09:48:10;24.90;39.70
44851;DHT22;30583;48.714;9.386;2023-07-20T09:50:40;24.70;39.90
44851;DHT22;30583;48.714;9.386;2023-07-20T09:53:11;24.40;40.90
44851;DHT22;30583;48.714;9.386;2023-07-20T09:55:41;24.30;40.70
44851;DHT22;30583;48.714;9.386;2023-07-20T09:58:08;24.30;41.50
44851;DHT22;30583;48.714;9.386;2023-07-20T10:00:36;24.50;41.70
44851;DHT22;30583;48.714;9.386;2023-07-20T10:03:05;25.00;41.10
44851;DHT22;30583;48.714;9.386;2023-07-20T10:05:35;24.90;40.40
44851;DHT22;30583;48.714;9.386;2023-07-20T10:08:02;25.20;40.70
44851;DHT22;30583;48.714;9.386;2023-07-20T10:10:29;24.80;40.00
44851;DHT22;30583;48.714;9.386;2023-07-20T10:12:57;24.60;40.90
44851;DHT22;30583;48.714;9.386;2023-07-20T10:15:40;24.60;40.10
44851;DHT22;30583;48.714;9.386;2023-07-20T10:20:47;24.50;41.00
44851;DHT22;30583;48.714;9.386;2023-07-20T10:23:14;24.40;40.70
44851;DHT22;30583;48.714;9.386;2023-07-20T10:25:40;24.50;42.00
44851;DHT22;30583;48.714;9.386;2023-07-20T10:28:08;24.30;41.90
44851;DHT22;30583;48.714;9.386;2023-07-20T10:30:35;24.20;41.90
44851;DHT22;30583;48.714;9.386;2023-07-20T10:33:04;24.50;41.20
44851;DHT22;30583;48.714;9.386;2023-07-20T10:35:53;24.70;40.50
44851;DHT22;30583;48.714;9.386;2023-07-20T10:38:20;25.20;40.90
44851;DHT22;30583;48.714;9.386;2023-07-20T10:40:55;25.20;40.10
44851;DHT22;30583;48.714;9.386;2023-07-20T10:43:21;25.50;39.80
44851;DHT22;30583;48.714;9.386;2023-07-20T10:45:51;25.70;39.00
44851;DHT22;30583;48.714;9.386;2023-07-20T10:48:24;25.70;38.70
44851;DHT22;30583;48.714;9.386;2023-07-20T10:51:10;25.80;37.80
44851;DHT22;30583;48.714;9.386;2023-07-20T10:53:36;25.90;38.90
44851;DHT22;30583;48.714;9.386;2023-07-20T10:56:13;26.00;38.30
44851;DHT22;30583;48.714;9.386;2023-07-20T10:58:40;26.30;37.20
44851;DHT22;30583;48.714;9.386;2023-07-20T11:01:07;26.30;36.80
44851;DHT22;30583;48.714;9.386;2023-07-20T11:03:35;26.50;35.40
44851;DHT22;30583;48.714;9.386;2023-07-20T11:08:54;26.00;37.50
44851;DHT22;30583;48.714;9.386;2023-07-20T11:11:25;25.80;37.90
44851;DHT22;30583;48.714;9.386;2023-07-20T11:14:04;25.70;38.70
44851;DHT22;30583;48.714;9.386;2023-07-20T11:19:25;25.70;37.50
44851;DHT22;30583;48.714;9.386;2023-07-20T11:21:53;25.50;37.50
44851;DHT22;30583;48.714;9.386;2023-07-20T11:24:18;25.70;38.00
44851;DHT22;30583;48.714;9.386;2023-07-20T11:26:54;25.70;37.60
44851;DHT22;30583;48.714;9.386;2023-07-20T11:29:21;26.40;36.50
44851;DHT22;30583;48.714;9.386;2023-07-20T11:31:47;26.70;35.60
44851;DHT22;30583;48.714;9.386;2023-07-20T11:34:32;26.70;34.60
44851;DHT22;30583;48.714;9.386;2023-07-20T11:36:59;26.70;34.50
44851;DHT22;30583;48.714;9.386;2023-07-20T11:39:25;26.80;36.20
44851;DHT22;30583;48.714;9.386;2023-07-20T11:41:55;26.60;35.80
44851;DHT22;30583;48.714;9.386;2023-07-20T11:44:28;26.30;36.30
44851;DHT22;30583;48.714;9.386;2023-07-20T11:49:28;26.20;36.20
44851;DHT22;30583;48.714;9.386;2023-07-20T11:51:54;26.10;36.20
44851;DHT22;30583;48.714;9.386;2023-07-20T11:54:20;26.70;36.30
44851;DHT22;30583;48.714;9.386;2023-07-20T11:56:46;27.00;34.40
44851;DHT22;30583;48.714;9.386;2023-07-20T11:59:12;26.90;34.80
44851;DHT22;30583;48.714;9.386;2023-07-20T12:01:37;27.00;33.70
44851;DHT22;30583;48.714;9.386;2023-07-20T12:04:03;27.20;34.00
44851;DHT22;30583;48.714;9.386;2023-07-20T12:06:30;27.30;34.30
44851;DHT22;30583;48.714;9.386;2023-07-20T12:08:59;26.60;33.80
44851;DHT22;30583;48.714;9.386;2023-07-20T12:11:35;26.40;34.60
44851;DHT22;30583;48.714;9.386;2023-07-20T12:14:11;26.70;34.10
44851;DHT22;30583;48.714;9.386;2023-07-20T12:16:37;27.10;34.20
44851;DHT22;30583;48.714;9.386;2023-07-20T12:19:08;27.50;34.00
44851;DHT22;30583;48.714;9.386;2023-07-20T12:21:35;27.00;33.20
44851;DHT22;30583;48.714;9.386;2023-07-20T12:24:04;26.50;33.90
44851;DHT22;30583;48.714;9.386;2023-07-20T12:26:31;26.20;33.40
44851;DHT22;30583;48.714;9.386;2023-07-20T12:28:57;25.90;33.90
44851;DHT22;30583;48.714;9.386;2023-07-20T12:31:23;26.10;33.80
44851;DHT22;30583;48.714;9.386;2023-07-20T12:33:53;26.20;34.50
44851;DHT22;30583;48.714;9.386;2023-07-20T12:36:20;26.50;33.90
44851;DHT22;30583;48.714;9.386;2023-07-20T12:38:46;26.70;33.50
44851;DHT22;30583;48.714;9.386;2023-07-20T12:41:12;26.80;32.80
44851;DHT22;30583;48.714;9.386;2023-07-20T12:43:40;26.70;33.10
44851;DHT22;30583;48.714;9.386;2023-07-20T12:46:06;26.70;33.10
44851;DHT22;30583;48.714;9.386;2023-07-20T12:48:31;26.70;33.40
44851;DHT22;30583;48.714;9.386;2023-07-20T12:50:57;27.20;33.40
44851;DHT22;30583;48.714;9.386;2023-07-20T12:53:22;27.30;32.80
44851;DHT22;30583;48.714;9.386;2023-07-20T12:55:48;27.40;31.50
44851;DHT22;30583;48.714;9.386;2023-07-20T12:58:14;27.30;32.20
44851;DHT22;30583;48.714;9.386;2023-07-20T13:00:39;27.80;32.40
44851;DHT22;30583;48.714;9.386;2023-07-20T13:03:06;28.10;31.30
44851;DHT22;30583;48.714;9.386;2023-07-20T13:05:35;28.30;31.40
44851;DHT22;30583;48.714;9.386;2023-07-20T13:08:01;28.00;31.00
44851;DHT22;30583;48.714;9.386;2023-07-20T13:10:27;27.70;31.60
44851;DHT22;30583;48.714;9.386;2023-07-20T13:12:52;27.70;31.80
44851;DHT22;30583;48.714;9.386;2023-07-20T13:15:18;28.00;31.20
44851;DHT22;30583;48.714;9.386;2023-07-20T13:17:44;27.90;30.90
44851;DHT22;30583;48.714;9.386;2023-07-20T13:20:10;27.80;31.30
44851;DHT22;30583;48.714;9.386;2023-07-20T13:22:40;28.20;30.80
44851;DHT22;30583;48.714;9.386;2023-07-20T13:25:07;27.50;31.40
44851;DHT22;30583;48.714;9.386;2023-07-20T13:27:33;27.30;31.80
44851;DHT22;30583;48.714;9.386;2023-07-20T13:29:59;27.40;31.70
44851;DHT22;30583;48.714;9.386;2023-07-20T13:32:26;27.00;31.40
44851;DHT22;30583;48.714;9.386;2023-07-20T13:34:52;27.20;32.00
44851;DHT22;30583;48.714;9.386;2023-07-20T13:37:18;27.90;31.80
44851;DHT22;30583;48.714;9.386;2023-07-20T13:39:44;28.20;30.80
44851;DHT22;30583;48.714;9.386;2023-07-20T13:42:10;28.20;30.90
44851;DHT22;30583;48.714;9.386;2023-07-20T13:44:37;28.40;31.70
44851;DHT22;30583;48.714;9.386;2023-07-20T13:47:03;28.00;30.90
44851;DHT22;30583;48.714;9.386;2023-07-20T13:49:30;28.10;31.50
44851;DHT22;30583;48.714;9.386;2023-07-20T13:51:56;28.30;30.80
44851;DHT22;30583;48.714;9.386;2023-07-20T13:54:23;28.30;30.60
44851;DHT22;30583;48.714;9.386;2023-07-20T13:56:48;28.20;30.40
44851;DHT22;30583;48.714;9.386;2023-07-20T13:59:14;27.70;30.90
44851;DHT22;30583;48.714;9.386;2023-07-20T14:01:39;27.40;31.60
44851;DHT22;30583;48.714;9.386;2023-07-20T14:04:05;27.90;31.40
44851;DHT22;30583;48.714;9.386;2023-07-20T14:06:32;28.00;30.40
44851;DHT22;30583;48.714;9.386;2023-07-20T14:08:59;28.20;30.40
44851;DHT22;30583;48.714;9.386;2023-07-20T14:11:24;28.30;30.10
44851;DHT22;30583;48.714;9.386;2023-07-20T14:13:51;27.90;30.70
44851;DHT22;30583;48.714;9.386;2023-07-20T14:16:21;28.10;30.20
44851;DHT22;30583;48.714;9.386;2023-07-20T14:18:47;28.10;30.10
44851;DHT22;30583;48.714;9.386;2023-07-20T14:21:14;28.10;30.60
44851;DHT22;30583;48.714;9.386;2023-07-20T14:23:40;28.30;29.80
44851;DHT22;30583;48.714;9.386;2023-07-20T14:26:05;28.40;30.30
44851;DHT22;30583;48.714;9.386;2023-07-20T14:28:31;28.40;30.00
44851;DHT22;30583;48.714;9.386;2023-07-20T14:30:57;28.50;29.60
44851;DHT22;30583;48.714;9.386;2023-07-20T14:33:23;28.40;29.50
44851;DHT22;30583;48.714;9.386;2023-07-20T14:35:48;28.40;28.90
44851;DHT22;30583;48.714;9.386;2023-07-20T14:38:14;28.60;28.70
44851;DHT22;30583;48.714;9.386;2023-07-20T14:40:40;28.60;29.90
44851;DHT22;30583;48.714;9.386;2023-07-20T14:43:06;28.20;29.40
44851;DHT22;30583;48.714;9.386;2023-07-20T14:45:32;28.40;29.40
44851;DHT22;30583;48.714;9.386;2023-07-20T14:47:57;28.30;29.70
44851;DHT22;30583;48.714;9.386;2023-07-20T14:50:23;28.20;30.00
44851;DHT22;30583;48.714;9.386;2023-07-20T14:52:49;27.90;30.30
44851;DHT22;30583;48.714;9.386;2023-07-20T14:55:15;28.20;29.40
44851;DHT22;30583;48.714;9.386;2023-07-20T14:57:41;28.30;29.40
44851;DHT22;30583;48.714;9.386;2023-07-20T15:00:07;28.20;29.70
44851;DHT22;30583;48.714;9.386;2023-07-20T15:02:36;28.40;29.80
44851;DHT22;30583;48.714;9.386;2023-07-20T15:05:02;28.30;29.60
44851;DHT22;30583;48.714;9.386;2023-07-20T15:07:28;28.50;29.70
44851;DHT22;30583;48.714;9.386;2023-07-20T15:09:54;28.30;29.60
44851;DHT22;30583;48.714;9.386;2023-07-20T15:12:19;28.50;29.30
44851;DHT22;30583;48.714;9.386;2023-07-20T15:15:02;28.60;28.60
44851;DHT22;30583;48.714;9.386;2023-07-20T15:17:28;28.40;28.80
44851;DHT22;30583;48.714;9.386;2023-07-20T15:19:54;27.90;29.40
44851;DHT22;30583;48.714;9.386;2023-07-20T15:22:20;27.80;30.20
44851;DHT22;30583;48.714;9.386;2023-07-20T15:24:47;28.10;29.70
44851;DHT22;30583;48.714;9.386;2023-07-20T15:27:13;28.20;30.00
44851;DHT22;30583;48.714;9.386;2023-07-20T15:29:38;27.90;29.80
44851;DHT22;30583;48.714;9.386;2023-07-20T15:32:04;28.20;29.40
44851;DHT22;30583;48.714;9.386;2023-07-20T15:34:31;27.90;29.40
44851;DHT22;30583;48.714;9.386;2023-07-20T15:36:57;28.10;29.50
44851;DHT22;30583;48.714;9.386;2023-07-20T15:39:22;28.10;29.90
44851;DHT22;30583;48.714;9.386;2023-07-20T15:41:49;27.90;29.50
44851;DHT22;30583;48.714;9.386;2023-07-20T15:44:14;28.10;29.30
44851;DHT22;30583;48.714;9.386;2023-07-20T15:49:06;28.00;29.10
44851;DHT22;30583;48.714;9.386;2023-07-20T15:51:35;27.90;29.20
44851;DHT22;30583;48.714;9.386;2023-07-20T15:54:10;27.70;29.80